Time;durP1;ratioP1;P1;durP2;ratioP2;P2;SDS_P1;SDS_P2;PMS_P1;PMS_P2;Temp;Humidity;BMP_temperature;BMP_pressure;BME280_temperature;BME280_humidity;BME280_pressure;Samples;Min_cycle;Max_cycle;Signal;HPM_P1;HPM_P2
2022/04/23 00:00:21;;;;;;;62.88;32.40;;;;;;;10.86;69.46;100440.28;5022922;28;20028;-89
2022/04/23 00:02:46;;;;;;;62.17;31.27;;;;;;;10.83;69.35;100435.91;5023549;28;20030;-89
2022/04/23 00:05:11;;;;;;;63.97;33.83;;;;;;;10.80;70.03;100435.88;5022815;28;20030;-89
2022/04/23 00:07:37;;;;;;;55.42;30.77;;;;;;;10.79;69.97;100434.13;5021752;28;20081;-89
2022/04/23 00:10:02;;;;;;;58.33;31.35;;;;;;;10.75;70.54;100438.41;5021154;28;20292;-90
2022/04/23 00:12:28;;;;;;;58.63;31.20;;;;;;;10.72;71.06;100432.28;5021991;28;20040;-88
2022/04/23 00:14:53;;;;;;;54.45;30.77;;;;;;;10.68;71.00;100430.47;5022722;28;20079;-89
2022/04/23 00:17:19;;;;;;;58.72;32.08;;;;;;;10.65;70.59;100435.63;5022245;28;20025;-89
2022/04/23 00:19:46;;;;;;;56.22;30.98;;;;;;;10.63;70.93;100432.09;5022279;28;20037;-89
2022/04/23 00:22:12;;;;;;;56.72;30.10;;;;;;;10.60;70.95;100436.44;5021425;28;20048;-90
2022/04/23 00:24:37;;;;;;;56.53;29.42;;;;;;;10.57;71.21;100432.88;5022057;28;20065;-89
2022/04/23 00:27:03;;;;;;;55.25;30.85;;;;;;;10.57;70.46;100435.47;5021132;28;20026;-89
2022/04/23 00:29:29;;;;;;;56.75;31.05;;;;;;;10.54;70.63;100436.34;5021274;28;20076;-90
2022/04/23 00:31:55;;;;;;;56.92;30.33;;;;;;;10.52;71.03;100431.94;5022064;28;20029;-89
2022/04/23 00:34:20;;;;;;;54.92;30.80;;;;;;;10.48;71.13;100427.53;5022704;28;20331;-89
2022/04/23 00:36:46;;;;;;;59.17;30.45;;;;;;;10.46;71.71;100435.31;5021719;28;20089;-89
2022/04/23 00:39:11;;;;;;;57.55;30.60;;;;;;;10.43;72.34;100430.06;5019778;28;20084;-89
2022/04/23 00:41:46;;;;;;;52.75;30.30;;;;;;;10.44;72.05;100431.78;5020273;28;20022;-89
2022/04/23 00:44:15;;;;;;;58.55;31.25;;;;;;;10.39;71.72;100434.31;5022612;28;20026;-89
2022/04/23 00:46:42;;;;;;;56.65;30.50;;;;;;;10.37;71.65;100438.63;5021976;28;20260;-88
2022/04/23 00:49:07;;;;;;;60.53;30.48;;;;;;;10.32;72.48;100429.81;5021187;28;20022;-89
2022/04/23 00:51:34;;;;;;;55.63;30.33;;;;;;;10.26;71.94;100433.19;5013794;28;20026;-89
2022/04/23 00:54:09;;;;;;;59.38;32.03;;;;;;;10.23;72.87;100433.13;5016658;28;20303;-88
2022/04/23 00:56:36;;;;;;;59.70;31.83;;;;;;;10.22;72.70;100430.50;5022353;28;20032;-88
2022/04/23 00:59:08;;;;;;;61.35;31.70;;;;;;;10.21;72.84;100427.03;5020473;28;20049;-88
2022/04/23 01:01:34;;;;;;;63.20;33.15;;;;;;;10.17;73.18;100427.81;5011682;28;20116;-88
2022/04/23 01:04:02;;;;;;;60.53;31.75;;;;;;;10.14;72.44;100425.16;5022309;28;20061;-89
2022/04/23 01:06:28;;;;;;;60.42;32.75;;;;;;;10.12;73.23;100416.44;5019794;28;20087;-88
2022/04/23 01:08:54;;;;;;;63.75;32.80;;;;;;;10.13;73.48;100423.41;5021327;28;20037;-87
2022/04/23 01:11:20;;;;;;;63.00;32.47;;;;;;;10.14;73.56;100432.06;5020996;28;20046;-87
2022/04/23 01:13:45;;;;;;;62.75;32.88;;;;;;;10.12;73.72;100421.63;5021256;28;20045;-87
2022/04/23 01:16:10;;;;;;;67.72;34.55;;;;;;;10.12;74.24;100423.38;5022258;28;20045;-87
2022/04/23 01:18:42;;;;;;;61.08;32.42;;;;;;;10.12;74.20;100425.97;5021095;28;20018;-87
2022/04/23 01:21:10;;;;;;;59.90;33.85;;;;;;;10.11;74.23;100425.13;5022208;28;20168;-87
2022/04/23 01:23:37;;;;;;;69.00;34.30;;;;;;;10.10;74.49;100419.00;5020969;28;20165;-88
2022/04/23 01:26:03;;;;;;;67.20;34.33;;;;;;;10.11;74.41;100425.13;5020427;28;20072;-88
2022/04/23 01:28:32;;;;;;;68.75;35.03;;;;;;;10.13;74.56;100425.13;5019281;28;20041;-88
2022/04/23 01:30:57;;;;;;;71.15;34.80;;;;;;;10.13;74.45;100439.03;5022002;28;20075;-89
2022/04/23 01:33:23;;;;;;;71.00;36.03;;;;;;;10.13;74.37;100422.53;5020244;28;20050;-88
2022/04/23 01:35:48;;;;;;;72.22;34.83;;;;;;;10.15;74.82;100433.84;5020804;28;20026;-88
2022/04/23 01:38:14;;;;;;;68.82;34.25;;;;;;;10.15;74.36;100432.09;5023659;28;20154;-89
2022/04/23 01:40:40;;;;;;;68.40;35.20;;;;;;;10.14;74.65;100427.75;5025154;28;20037;-89
2022/04/23 01:43:06;;;;;;;71.53;35.83;;;;;;;10.14;74.74;100424.25;5025800;28;20041;-89
2022/04/23 01:45:32;;;;;;;74.28;36.28;;;;;;;10.10;74.99;100433.75;5023685;28;20291;-88
2022/04/23 01:47:57;;;;;;;70.18;36.58;;;;;;;10.08;74.93;100428.53;5025781;28;20264;-88
2022/04/23 01:50:23;;;;;;;78.22;36.65;;;;;;;10.09;74.81;100438.09;5022803;28;20093;-88
2022/04/23 01:52:48;;;;;;;77.72;37.38;;;;;;;10.06;75.05;100429.34;5025511;28;20176;-88
2022/04/23 01:55:14;;;;;;;79.97;35.97;;;;;;;10.05;75.20;100427.56;5025164;28;20040;-88
2022/04/23 01:57:39;;;;;;;82.85;37.92;;;;;;;10.04;75.42;100434.53;5022556;28;20022;-88
2022/04/23 02:00:10;;;;;;;76.88;37.95;;;;;;;10.06;75.22;100437.16;5022528;28;20097;-88
2022/04/23 02:02:37;;;;;;;74.15;37.70;;;;;;;10.04;75.26;100434.53;5025562;28;20088;-88
2022/04/23 02:05:03;;;;;;;82.30;36.90;;;;;;;10.04;75.35;100436.25;5024694;28;20265;-88
2022/04/23 02:07:28;;;;;;;84.95;40.05;;;;;;;10.05;75.51;100438.00;5024113;28;20287;-88
2022/04/23 02:09:54;;;;;;;76.45;37.78;;;;;;;10.03;75.49;100426.69;5023364;28;20030;-88
2022/04/23 02:12:19;;;;;;;83.25;40.78;;;;;;;10.01;75.68;100438.81;5024001;28;20081;-88
2022/04/23 02:14:44;;;;;;;83.78;40.80;;;;;;;10.01;75.59;100433.59;5024971;28;20029;-88
2022/04/23 02:17:10;;;;;;;91.68;41.03;;;;;;;10.00;75.84;100444.84;5024546;28;20025;-88
2022/04/23 02:19:35;;;;;;;92.85;40.35;;;;;;;9.99;75.74;100441.34;5025178;28;20200;-88
2022/04/23 02:22:01;;;;;;;88.88;41.55;;;;;;;9.97;75.76;100439.59;5023052;28;20034;-88
2022/04/23 02:24:26;;;;;;;88.75;40.92;;;;;;;9.98;75.83;100436.13;5024803;28;20053;-88
2022/04/23 02:26:51;;;;;;;94.40;41.90;;;;;;;9.97;75.92;100424.84;5023191;28;20048;-88
2022/04/23 02:29:17;;;;;;;93.68;41.55;;;;;;;9.97;76.06;100439.59;5023234;28;20261;-88
2022/04/23 02:31:42;;;;;;;95.90;43.60;;;;;;;9.96;75.99;100435.22;5023613;28;20276;-88
2022/04/23 02:34:07;;;;;;;93.47;42.60;;;;;;;9.95;76.34;100439.56;5021163;28;20184;-88
2022/04/23 02:36:32;;;;;;;97.43;43.53;;;;;;;9.92;76.38;100442.97;5023629;28;20021;-89
2022/04/23 02:38:59;;;;;;;98.07;44.22;;;;;;;9.91;76.60;100445.53;5022626;28;20037;-88
2022/04/23 02:41:24;;;;;;;96.97;44.10;;;;;;;9.88;76.59;100433.34;5024437;28;20109;-88
2022/04/23 02:43:50;;;;;;;103.40;44.97;;;;;;;9.86;76.73;100436.75;5023892;28;20068;-88
2022/04/23 02:46:16;;;;;;;98.47;45.10;;;;;;;9.83;76.92;100437.56;5023262;28;20028;-88
2022/04/23 02:48:42;;;;;;;97.13;43.75;;;;;;;9.83;76.64;100442.78;5021783;28;20101;-89
2022/04/23 02:51:08;;;;;;;102.63;44.58;;;;;;;9.80;77.26;100437.50;5021905;28;20013;-88
2022/04/23 02:53:34;;;;;;;105.57;45.15;;;;;;;9.81;76.91;100434.06;5024336;28;20109;-88
2022/04/23 02:56:02;;;;;;;107.10;44.42;;;;;;;9.79;77.13;100429.66;5017015;28;20176;-88
2022/04/23 02:58:28;;;;;;;112.25;45.97;;;;;;;9.77;77.62;100427.03;5019566;28;20025;-88
2022/04/23 03:00:53;;;;;;;104.70;44.90;;;;;;;9.77;77.18;100428.78;5022217;28;20033;-89
2022/04/23 03:03:19;;;;;;;115.53;46.97;;;;;;;9.76;77.40;100430.47;5015526;28;20018;-88
2022/04/23 03:05:45;;;;;;;118.20;46.83;;;;;;;9.73;77.48;100422.63;5023395;28;20026;-88
2022/04/23 03:08:12;;;;;;;108.43;46.17;;;;;;;9.77;77.46;100418.38;5022249;28;20018;-89
2022/04/23 03:10:39;;;;;;;106.95;45.67;;;;;;;9.76;77.69;100420.06;5022755;28;20100;-89
2022/04/23 03:13:05;;;;;;;110.65;46.08;;;;;;;9.78;77.47;100425.34;5022331;28;20021;-89
2022/04/23 03:15:30;;;;;;;111.75;45.35;;;;;;;9.76;77.44;100422.69;5022693;28;20025;-88
2022/04/23 03:18:04;;;;;;;120.97;46.55;;;;;;;9.77;77.48;100421.84;5022233;28;20176;-89
2022/04/23 03:20:30;;;;;;;117.55;47.40;;;;;;;9.74;77.46;100416.56;5023211;28;20061;-89
2022/04/23 03:22:55;;;;;;;119.93;47.65;;;;;;;9.74;77.70;100419.19;5023732;28;20100;-88
2022/04/23 03:25:22;;;;;;;116.13;47.92;;;;;;;9.74;77.70;100421.78;5022226;28;20037;-89
2022/04/23 03:27:47;;;;;;;116.35;46.25;;;;;;;9.74;77.62;100416.56;5022558;28;20042;-88
2022/04/23 03:30:12;;;;;;;125.72;48.08;;;;;;;9.73;77.54;100425.22;5023561;28;20025;-88
2022/04/23 03:32:38;;;;;;;121.88;47.72;;;;;;;9.75;77.61;100420.94;5021747;28;20186;-88
2022/04/23 03:35:05;;;;;;;117.47;48.22;;;;;;;9.72;77.53;100415.69;5022057;28;20097;-88
2022/04/23 03:37:31;;;;;;;124.43;48.30;;;;;;;9.68;77.81;100414.72;5022728;28;20303;-88
2022/04/23 03:39:56;;;;;;;121.80;47.67;;;;;;;9.66;77.87;100412.94;5020547;28;20018;-88
2022/04/23 03:42:21;;;;;;;123.35;48.35;;;;;;;9.64;77.84;100414.66;5023530;28;20014;-88
2022/04/23 03:44:46;;;;;;;117.20;47.72;;;;;;;9.63;78.17;100408.56;5022648;28;20092;-88
2022/04/23 03:47:12;;;;;;;119.97;48.22;;;;;;;9.62;78.24;100416.34;5022199;28;20042;-88
2022/04/23 03:49:37;;;;;;;122.57;48.45;;;;;;;9.60;78.17;100405.88;5022602;28;20026;-88
2022/04/23 03:52:03;;;;;;;130.00;48.95;;;;;;;9.56;78.34;100407.56;5021766;28;20272;-88
2022/04/23 03:54:28;;;;;;;122.07;48.28;;;;;;;9.55;78.45;100400.59;5008489;28;20038;-88
2022/04/23 03:56:53;;;;;;;126.20;48.08;;;;;;;9.51;78.75;100403.97;5020770;28;20045;-89
2022/04/23 03:59:23;;;;;;;129.30;50.08;;;;;;;9.50;78.72;100406.53;5022091;28;20022;-89
2022/04/23 04:01:53;;;;;;;123.50;49.08;;;;;;;9.49;78.68;100410.00;5022252;28;20030;-89
2022/04/23 04:04:18;;;;;;;122.57;47.90;;;;;;;9.48;79.05;100403.91;5022265;28;20060;-88
2022/04/23 04:06:44;;;;;;;118.55;46.05;;;;;;;9.45;79.17;100403.84;5021947;28;20022;-89
2022/04/23 04:09:09;;;;;;;122.10;47.97;;;;;;;9.42;79.04;100398.59;5022497;28;20010;-89
2022/04/23 04:14:34;;;;;;;123.75;47.03;;;;;;;9.44;79.20;100402.09;5021553;28;20298;-89
2022/04/23 04:17:01;;;;;;;122.97;47.70;;;;;;;9.42;79.39;100393.38;5022096;28;20029;-89
2022/04/23 04:19:27;;;;;;;119.90;46.65;;;;;;;9.44;79.22;100390.81;5020588;28;20018;-89
2022/04/23 04:21:54;;;;;;;118.70;46.55;;;;;;;9.45;79.02;100392.59;5021462;28;20042;-89
2022/04/23 04:24:19;;;;;;;113.28;46.17;;;;;;;9.45;79.53;100392.59;5022046;28;20068;-89
2022/04/23 04:26:47;;;;;;;114.25;45.58;;;;;;;9.43;79.43;100387.34;5021208;28;20034;-87
2022/04/23 04:29:13;;;;;;;114.65;45.58;;;;;;;9.39;79.55;100393.31;5021045;28;20026;-87
2022/04/23 04:31:48;;;;;;;107.53;45.53;;;;;;;9.38;79.66;100387.25;5021687;28;20038;-87
2022/04/23 04:34:24;;;;;;;110.93;44.05;;;;;;;9.39;79.63;100382.94;5021990;28;20053;-88
2022/04/23 04:36:51;;;;;;;107.07;44.67;;;;;;;9.43;79.63;100395.16;5022826;28;20141;-88
2022/04/23 04:39:18;;;;;;;109.00;44.00;;;;;;;9.42;79.72;100393.38;5019482;28;20101;-88
2022/04/23 04:41:44;;;;;;;102.03;43.28;;;;;;;9.39;79.57;100389.00;5020109;28;20064;-88
2022/04/23 04:44:10;;;;;;;100.10;42.60;;;;;;;9.40;80.05;100395.09;5022405;28;20192;-88
2022/04/23 04:46:36;;;;;;;103.53;43.78;;;;;;;9.42;79.82;100390.78;5017179;28;20109;-88
2022/04/23 04:49:03;;;;;;;92.90;40.42;;;;;;;9.42;79.85;100396.00;5015852;28;20029;-88
2022/04/23 04:51:29;;;;;;;91.68;41.40;;;;;;;9.41;80.07;100399.44;5021480;28;20072;-88
2022/04/23 04:53:55;;;;;;;88.70;41.03;;;;;;;9.43;80.01;100396.84;5021849;28;20026;-87
2022/04/23 04:56:20;;;;;;;87.28;38.85;;;;;;;9.45;80.11;100398.66;5020537;28;20101;-88
2022/04/23 04:58:47;;;;;;;84.78;39.60;;;;;;;9.47;80.12;100393.47;5022509;28;20330;-87
2022/04/23 05:01:13;;;;;;;84.95;39.58;;;;;;;9.49;80.02;100402.22;5021615;28;20026;-87
2022/04/23 05:03:39;;;;;;;82.00;38.28;;;;;;;9.50;80.10;100404.84;5021566;28;20128;-88
2022/04/23 05:06:06;;;;;;;80.00;38.30;;;;;;;9.50;80.35;100404.84;5021365;28;20284;-88
2022/04/23 05:08:31;;;;;;;84.05;39.03;;;;;;;9.50;80.20;100412.63;5021177;28;20052;-88
2022/04/23 05:10:56;;;;;;;74.93;36.78;;;;;;;9.53;80.03;100412.69;5021695;28;20025;-88
2022/04/23 05:13:21;;;;;;;77.28;37.15;;;;;;;9.55;80.07;100421.41;5023256;28;20025;-88
2022/04/23 05:15:48;;;;;;;74.85;36.85;;;;;;;9.52;80.22;100410.94;5025370;28;20065;-88
2022/04/23 05:18:14;;;;;;;67.60;34.95;;;;;;;9.57;80.25;100408.41;5016938;28;20165;-87
2022/04/23 05:20:39;;;;;;;66.80;34.58;;;;;;;9.60;80.07;100407.63;5024279;28;20276;-88
2022/04/23 05:23:04;;;;;;;65.00;34.65;;;;;;;9.58;80.45;100412.78;5025823;28;20109;-88
2022/04/23 05:25:30;;;;;;;63.17;34.22;;;;;;;9.58;80.29;100405.84;5024381;28;20036;-88
2022/04/23 05:27:55;;;;;;;58.42;32.30;;;;;;;9.61;80.42;100399.84;5024884;28;20033;-88
2022/04/23 05:30:20;;;;;;;58.70;33.50;;;;;;;9.62;80.42;100403.34;5025976;28;20042;-87
2022/04/23 05:32:45;;;;;;;57.58;31.67;;;;;;;9.65;80.29;100408.59;5025072;28;20026;-87
2022/04/23 05:35:11;;;;;;;56.50;31.77;;;;;;;9.66;80.45;100403.44;5024685;28;20365;-87
2022/04/23 05:37:36;;;;;;;56.47;31.70;;;;;;;9.70;80.20;100409.56;5024807;28;20026;-88
2022/04/23 05:40:01;;;;;;;54.63;31.67;;;;;;;9.72;80.13;100400.06;5024039;28;20029;-88
2022/04/23 05:42:26;;;;;;;54.53;31.55;;;;;;;9.73;80.21;100405.31;5023950;28;20084;-88
2022/04/23 05:44:52;;;;;;;53.10;30.80;;;;;;;9.76;80.22;100404.47;5025771;28;20045;-88
2022/04/23 05:47:17;;;;;;;52.33;31.35;;;;;;;9.79;80.10;100407.16;5023873;28;20288;-87
2022/04/23 05:49:42;;;;;;;46.80;28.73;;;;;;;9.82;80.26;100404.59;5024299;28;20033;-88
2022/04/23 05:52:08;;;;;;;49.72;29.60;;;;;;;9.85;79.76;100409.88;5025437;28;20260;-88
2022/04/23 05:54:33;;;;;;;52.47;29.42;;;;;;;9.89;80.23;100402.97;5024735;28;20030;-88
2022/04/23 05:56:58;;;;;;;45.67;28.63;;;;;;;9.95;79.95;100405.72;5024592;28;20061;-88
2022/04/23 05:59:26;;;;;;;47.88;29.38;;;;;;;9.99;80.02;100401.44;5024296;28;20030;-88
2022/04/23 06:01:51;;;;;;;47.22;29.73;;;;;;;10.02;79.60;100405.00;5024737;28;20285;-88
2022/04/23 06:04:16;;;;;;;46.78;28.35;;;;;;;10.04;79.76;100392.88;5024070;28;20030;-89
2022/04/23 06:06:41;;;;;;;45.70;29.17;;;;;;;10.10;79.81;100397.31;5023533;28;20018;-87
2022/04/23 06:09:07;;;;;;;45.42;26.98;;;;;;;10.12;79.76;100395.59;5024335;28;20192;-88
2022/04/23 06:11:32;;;;;;;41.67;27.02;;;;;;;10.16;79.30;100394.81;5020165;28;20038;-88
2022/04/23 06:13:57;;;;;;;44.40;27.85;;;;;;;10.21;79.21;100393.19;5023244;28;20328;-88
2022/04/23 06:16:23;;;;;;;44.30;28.92;;;;;;;10.26;78.71;100396.72;5025130;28;20068;-87
2022/04/23 06:18:48;;;;;;;41.08;27.08;;;;;;;10.31;79.15;100393.34;5023854;28;20060;-89
2022/04/23 06:21:13;;;;;;;41.85;27.23;;;;;;;10.36;78.70;100392.59;5022955;28;20058;-87
2022/04/23 06:23:38;;;;;;;42.60;28.40;;;;;;;10.42;78.91;100397.91;5021266;28;20026;-87
2022/04/23 06:26:04;;;;;;;40.55;27.17;;;;;;;10.59;78.88;100389.50;5022345;28;20345;-87
2022/04/23 06:28:29;;;;;;;39.95;26.48;;;;;;;12.23;73.62;100396.84;5024833;28;20176;-89
2022/04/23 06:30:54;;;;;;;38.47;26.55;;;;;;;14.75;65.41;100389.25;5023450;28;20050;-89
2022/04/23 06:33:19;;;;;;;35.67;25.80;;;;;;;17.01;57.22;100375.78;5022870;28;20209;-90
2022/04/23 06:35:45;;;;;;;33.60;23.83;;;;;;;18.94;51.54;100385.38;5024823;28;20109;-89
2022/04/23 06:38:11;;;;;;;30.80;22.90;;;;;;;20.36;47.33;100384.19;5024974;28;20063;-89
2022/04/23 06:40:37;;;;;;;31.30;22.73;;;;;;;21.63;44.15;100377.28;5023537;28;20032;-89
2022/04/23 06:43:02;;;;;;;30.55;22.00;;;;;;;22.46;41.38;100394.19;5024066;28;20042;-89
2022/04/23 06:45:27;;;;;;;28.58;22.35;;;;;;;21.43;43.44;100391.06;5023122;28;20046;-89
2022/04/23 06:48:04;;;;;;;29.25;21.80;;;;;;;19.74;47.80;100378.50;5022069;28;20362;-89
2022/04/23 06:50:33;;;;;;;28.92;22.50;;;;;;;18.32;50.63;100381.13;5019458;28;20279;-89
2022/04/23 06:53:02;;;;;;;30.65;23.52;;;;;;;17.18;53.80;100382.63;5020398;28;20017;-88
2022/04/23 06:55:28;;;;;;;30.05;23.45;;;;;;;16.36;55.61;100385.97;5023606;28;20038;-89
2022/04/23 06:57:54;;;;;;;30.33;23.65;;;;;;;15.66;57.84;100385.50;5023464;28;20040;-89
2022/04/23 07:00:22;;;;;;;30.27;23.60;;;;;;;15.10;61.01;100383.06;5022291;28;20265;-89
2022/04/23 07:02:47;;;;;;;34.63;24.55;;;;;;;14.69;61.33;100378.78;5023317;28;20034;-89
2022/04/23 07:05:13;;;;;;;33.83;24.65;;;;;;;14.35;63.03;100377.88;5022451;28;20042;-92
2022/04/23 07:07:38;;;;;;;32.03;24.02;;;;;;;14.02;63.62;100369.97;5023997;28;20052;-89
2022/04/23 07:10:04;;;;;;;31.63;23.13;;;;;;;13.82;64.31;100374.31;5022750;28;20021;-88
2022/04/23 07:12:29;;;;;;;40.25;23.35;;;;;;;13.66;65.92;100376.88;5021836;28;20291;-88
2022/04/23 07:14:55;;;;;;;30.95;23.83;;;;;;;13.55;65.43;100373.34;5022581;28;20116;-88
2022/04/23 07:17:26;;;;;;;34.10;24.48;;;;;;;13.45;66.71;100369.81;5020569;28;20036;-91
2022/04/23 07:19:55;;;;;;;33.20;24.67;;;;;;;13.41;66.78;100372.41;5022934;28;20030;-90
2022/04/23 07:22:20;;;;;;;37.40;25.70;;;;;;;13.37;66.39;100361.94;5022538;28;20038;-91
2022/04/23 07:24:48;;;;;;;34.08;24.75;;;;;;;13.33;67.19;100373.22;5014882;28;20113;-91
2022/04/23 07:27:14;;;;;;;34.88;25.42;;;;;;;13.31;66.87;100367.13;5022774;28;20018;-90
2022/04/23 07:29:39;;;;;;;32.63;24.27;;;;;;;13.33;68.38;100365.38;5022912;28;20140;-75
2022/04/23 07:32:05;;;;;;;37.63;24.92;;;;;;;13.37;68.32;100369.78;5022802;28;20268;-76
2022/04/23 07:37:34;;;;;;;36.22;25.25;;;;;;;13.44;68.13;100362.84;5011725;28;20388;-76
2022/04/23 07:40:10;;;;;;;33.05;23.88;;;;;;;13.50;66.61;100362.00;5011474;28;20035;-75
2022/04/23 07:42:36;;;;;;;32.85;23.75;;;;;;;13.53;67.53;100356.75;4996428;28;20041;-75
2022/04/23 07:45:02;;;;;;;34.08;24.17;;;;;;;13.55;66.75;100362.88;5022538;28;20080;-76
2022/04/23 07:47:30;;;;;;;33.30;24.35;;;;;;;13.56;66.93;100362.00;5022874;28;20041;-76
2022/04/23 07:49:55;;;;;;;31.20;23.60;;;;;;;13.62;66.49;100359.41;5023357;28;20173;-75
2022/04/23 07:52:21;;;;;;;33.97;23.63;;;;;;;13.66;65.32;100348.06;5022502;28;20028;-76
2022/04/23 07:54:46;;;;;;;32.10;23.80;;;;;;;13.69;65.38;100360.31;5021155;28;20037;-75
2022/04/23 07:57:12;;;;;;;31.40;22.63;;;;;;;13.71;64.95;100351.56;5022603;28;20068;-76
2022/04/23 07:59:40;;;;;;;32.97;23.38;;;;;;;13.77;65.42;100352.47;5020984;28;20038;-75
2022/04/23 08:02:05;;;;;;;34.92;24.30;;;;;;;13.85;65.51;100355.97;5022191;28;20041;-76
2022/04/23 08:04:30;;;;;;;33.08;23.88;;;;;;;13.92;66.16;100347.28;5022000;28;20099;-76
2022/04/23 08:06:56;;;;;;;34.15;23.73;;;;;;;13.99;65.27;100349.03;5022791;28;20033;-75
2022/04/23 08:09:21;;;;;;;32.60;23.73;;;;;;;14.02;64.50;100346.41;5022654;28;20166;-76
2022/04/23 08:11:46;;;;;;;36.78;24.10;;;;;;;14.09;65.12;100336.78;5023105;28;20021;-76
2022/04/23 08:14:12;;;;;;;32.13;22.58;;;;;;;14.15;64.50;100341.16;5022232;28;20061;-75
2022/04/23 08:16:37;;;;;;;30.23;21.42;;;;;;;14.21;63.34;100346.44;5022133;28;20038;-76
2022/04/23 08:19:03;;;;;;;29.25;21.75;;;;;;;14.26;63.46;100340.31;5022195;28;20192;-76
2022/04/23 08:21:28;;;;;;;35.35;22.55;;;;;;;14.32;63.71;100328.94;5022067;28;20046;-76
2022/04/23 08:23:54;;;;;;;33.50;24.35;;;;;;;14.39;64.97;100335.94;5022295;28;20026;-75
2022/04/23 08:26:19;;;;;;;32.63;23.85;;;;;;;14.44;62.40;100326.31;5021164;28;20101;-76
2022/04/23 08:31:28;;;;;;;34.47;22.55;;;;;;;14.43;63.04;100331.56;5022166;28;20029;-76
2022/04/23 08:34:00;;;;;;;32.30;23.40;;;;;;;14.43;63.37;100329.81;5022641;28;20022;-77
2022/04/23 08:36:29;;;;;;;32.40;23.20;;;;;;;14.47;63.10;100327.19;5020976;28;20244;-76
2022/04/23 08:38:56;;;;;;;31.45;22.98;;;;;;;14.50;62.48;100330.69;5022448;28;20303;-76
2022/04/23 08:41:28;;;;;;;35.45;22.50;;;;;;;14.51;62.68;100331.56;5021361;28;20045;-76
2022/04/23 08:43:58;;;;;;;30.60;22.10;;;;;;;14.54;62.75;100331.56;5022303;28;20026;-76
2022/04/23 08:46:26;;;;;;;38.28;23.38;;;;;;;14.57;62.19;100336.78;5021609;28;20072;-76
2022/04/23 09:35:10;;;;;;;41.10;28.65;;;;;;;15.56;60.64;100339.16;5072188;23;20099;-85
2022/04/23 09:43:03;;;;;;;41.63;30.75;;;;;;;15.60;60.00;100344.38;5074864;23;21090;-85
2022/04/23 09:45:30;;;;;;;40.42;30.27;;;;;;;15.58;59.81;100343.53;5018306;28;20040;-85
2022/04/23 09:53:33;;;;;;;47.80;32.10;;;;;;;15.69;59.90;100338.22;5126857;23;20054;-86
2022/04/23 09:55:59;;;;;;;43.78;31.95;;;;;;;15.74;57.29;100333.81;5010795;28;20265;-86
2022/04/23 09:58:27;;;;;;;41.67;30.98;;;;;;;15.80;57.66;100338.16;5003540;28;20049;-85
2022/04/23 10:13:56;;;;;;;39.78;30.48;;;;;;;15.82;57.43;100331.16;4739489;23;20411;-86
2022/04/23 10:16:22;;;;;;;45.53;31.13;;;;;;;15.84;58.73;100318.88;5019792;28;20513;-85
2022/04/23 10:18:47;;;;;;;44.08;32.92;;;;;;;15.88;58.07;100319.75;5011391;28;20030;-85
2022/04/23 10:21:30;;;;;;;47.40;32.53;;;;;;;15.93;58.78;100318.84;5012486;28;20076;-85
2022/04/23 10:24:05;;;;;;;42.50;32.22;;;;;;;15.99;59.11;100312.69;5012706;28;20029;-85
2022/04/23 10:26:38;;;;;;;45.08;30.27;;;;;;;16.03;59.33;100303.84;5011075;28;20032;-85
2022/04/23 10:29:09;;;;;;;44.42;29.98;;;;;;;16.05;59.33;100312.63;5012268;28;20026;-86
2022/04/23 10:31:35;;;;;;;41.53;30.95;;;;;;;16.08;56.95;100312.59;5012068;28;20516;-86
2022/04/23 10:34:00;;;;;;;38.42;30.25;;;;;;;16.12;57.83;100303.81;5012295;28;20025;-85
2022/04/23 10:36:27;;;;;;;39.55;30.55;;;;;;;16.22;58.04;100303.72;5012298;28;20524;-85
2022/04/23 10:39:18;;;;;;;40.58;30.98;;;;;;;16.25;58.62;100307.22;5012480;28;20026;-85
2022/04/23 10:41:44;;;;;;;46.47;32.05;;;;;;;16.26;58.20;100300.19;5012301;28;20033;-85
2022/04/23 10:44:11;;;;;;;40.45;30.60;;;;;;;16.31;57.93;100307.16;5008150;28;20034;-85
2022/04/23 10:46:45;;;;;;;43.05;30.80;;;;;;;16.33;58.87;100307.13;5012280;28;20025;-85
2022/04/23 10:49:18;;;;;;;44.88;31.92;;;;;;;16.31;57.96;100315.03;5011470;28;20100;-84
2022/04/23 10:52:04;;;;;;;41.08;30.90;;;;;;;16.30;56.36;100313.28;5011410;28;20018;-85
2022/04/23 10:54:39;;;;;;;40.58;31.15;;;;;;;16.39;58.14;100307.06;5009620;28;20038;-85
2022/04/23 10:57:07;;;;;;;45.40;32.50;;;;;;;16.46;58.61;100308.75;5010196;28;20038;-85
2022/04/23 10:59:48;;;;;;;40.67;31.33;;;;;;;16.60;59.70;100306.00;5011441;28;20026;-85
2022/04/23 11:02:28;;;;;;;41.05;31.88;;;;;;;16.75;57.67;100290.94;5009669;28;20036;-86
2022/04/23 11:13:30;;;;;;;51.83;39.28;;;;;;;17.14;55.93;100294.03;5030577;28;20080;-85
2022/04/23 11:16:10;;;;;;;52.05;37.78;;;;;;;17.27;56.34;100293.00;5043484;28;20101;-85
2022/04/23 11:18:36;;;;;;;42.38;33.28;;;;;;;17.37;55.80;100291.13;5041789;28;20041;-83
2022/04/23 11:21:23;;;;;;;44.42;33.70;;;;;;;17.44;55.40;100295.41;5043337;28;20078;-83
2022/04/23 11:23:49;;;;;;;47.17;34.65;;;;;;;17.53;54.87;100284.72;5042100;28;20053;-83
2022/04/23 11:26:17;;;;;;;68.25;43.15;;;;;;;17.62;54.21;100288.13;5041888;28;20219;-83
2022/04/23 11:28:42;;;;;;;62.13;41.80;;;;;;;17.61;52.83;100289.03;5043240;28;20051;-83
2022/04/23 11:31:11;;;;;;;42.28;31.52;;;;;;;17.65;54.05;100290.72;5042944;28;20018;-83
2022/04/23 11:33:48;;;;;;;39.80;29.75;;;;;;;17.69;53.56;100290.66;5043151;28;20041;-83
2022/04/23 11:36:13;;;;;;;43.83;31.75;;;;;;;17.78;53.70;100284.38;5043229;28;20044;-82
2022/04/23 11:38:42;;;;;;;40.40;30.65;;;;;;;17.84;54.97;100284.31;5043307;28;20093;-82
2022/04/23 11:41:07;;;;;;;48.05;33.72;;;;;;;17.84;53.27;100281.66;5042989;28;20112;-83
2022/04/23 11:43:39;;;;;;;42.35;31.02;;;;;;;17.79;51.68;100285.25;5043003;28;20120;-82
2022/04/23 11:46:07;;;;;;;42.28;30.67;;;;;;;17.77;52.72;100280.03;5042858;28;20111;-84
2022/04/23 11:48:47;;;;;;;42.20;31.90;;;;;;;17.81;54.42;100275.56;5041644;28;20399;-85
2022/04/23 11:51:14;;;;;;;41.38;30.70;;;;;;;17.79;52.38;100278.22;5041039;28;20268;-85
2022/04/23 11:54:05;;;;;;;36.67;29.10;;;;;;;17.85;53.61;100274.63;5041792;28;20049;-85
2022/04/23 11:56:33;;;;;;;40.75;31.23;;;;;;;17.87;52.43;100273.72;5040047;28;20026;-85
2022/04/23 11:59:09;;;;;;;38.40;29.58;;;;;;;17.99;52.94;100275.31;5042871;28;20030;-85
2022/04/23 12:01:38;;;;;;;40.03;29.98;;;;;;;18.11;53.34;100274.22;5043178;28;20055;-85
2022/04/23 12:04:03;;;;;;;34.83;28.15;;;;;;;18.17;51.77;100268.84;5042755;28;20323;-85
2022/04/23 12:06:42;;;;;;;36.75;29.30;;;;;;;18.25;51.93;100266.94;5042542;28;20149;-85
2022/04/23 12:09:08;;;;;;;38.67;30.27;;;;;;;18.33;53.81;100271.22;5042702;28;20025;-85
2022/04/23 12:11:33;;;;;;;34.30;27.75;;;;;;;18.35;49.61;100258.88;5042717;28;20099;-85
2022/04/23 12:14:01;;;;;;;38.70;28.50;;;;;;;18.39;51.14;100264.09;5035686;28;21040;-86
2022/04/23 12:16:36;;;;;;;35.50;27.90;;;;;;;18.45;51.79;100254.28;5037659;28;20025;-86
2022/04/23 12:19:08;;;;;;;37.25;29.27;;;;;;;18.50;50.17;100248.03;5034983;28;20256;-85
2022/04/23 12:21:34;;;;;;;35.47;27.90;;;;;;;18.58;49.45;100247.88;5038989;28;20025;-85
2022/04/23 12:24:01;;;;;;;37.83;28.10;;;;;;;18.57;50.60;100249.66;5038755;28;20036;-85
2022/04/23 12:26:34;;;;;;;39.22;29.70;;;;;;;18.63;52.42;100250.47;5040586;28;20036;-85
2022/04/23 12:42:26;;;;;;;39.97;28.58;;;;;;;18.71;48.70;100222.13;5041769;28;20031;-85
2022/04/23 12:44:53;;;;;;;40.60;28.67;;;;;;;18.78;48.90;100215.81;5040861;28;20044;-85
2022/04/23 12:47:33;;;;;;;36.47;27.65;;;;;;;18.84;50.95;100218.38;5037845;28;20040;-78
2022/04/23 12:50:02;;;;;;;36.65;28.60;;;;;;;18.90;48.68;100212.97;5041424;28;20245;-78